createdAt,value
2024-05-09T00:00:47.683Z,11.90
2024-05-09T00:01:47.474Z,11.80
2024-05-09T00:02:47.586Z,11.78
2024-05-09T00:03:47.487Z,11.72
2024-05-09T00:04:47.473Z,11.69
2024-05-09T00:05:47.585Z,11.72
2024-05-09T00:06:47.446Z,11.61
2024-05-09T00:07:47.505Z,11.58
2024-05-09T00:08:47.356Z,11.57
2024-05-09T00:09:47.345Z,11.57
2024-05-09T00:10:47.558Z,11.55
2024-05-09T00:11:47.439Z,11.52
2024-05-09T00:12:47.363Z,11.46
2024-05-09T00:13:47.398Z,11.44
2024-05-09T00:14:47.310Z,11.39
2024-05-09T00:15:47.463Z,11.32
2024-05-09T00:16:47.334Z,11.22
2024-05-09T00:17:47.506Z,11.22
2024-05-09T00:18:47.333Z,11.21
2024-05-09T00:19:47.420Z,11.17
2024-05-09T00:20:47.288Z,11.09
2024-05-09T00:21:47.323Z,11.06
2024-05-09T00:22:47.295Z,11.09
2024-05-09T00:23:47.211Z,11.07
2024-05-09T00:24:47.200Z,11.15
2024-05-09T00:25:47.214Z,11.14
2024-05-09T00:26:47.173Z,11.07
2024-05-09T00:27:47.176Z,11.07
2024-05-09T00:28:47.166Z,11.06
2024-05-09T00:29:47.138Z,11.03
2024-05-09T00:30:47.126Z,11.04
2024-05-09T00:31:47.145Z,11.03
2024-05-09T00:32:47.263Z,11.02
2024-05-09T00:33:47.226Z,11.04
2024-05-09T00:34:47.126Z,11.03
2024-05-09T00:35:47.089Z,11.00
2024-05-09T00:36:47.108Z,11.02
2024-05-09T00:37:47.078Z,11.03
2024-05-09T00:38:47.037Z,10.99
2024-05-09T00:39:47.063Z,10.94
2024-05-09T00:40:47.181Z,10.91
2024-05-09T00:41:47.045Z,10.91
2024-05-09T00:42:47.041Z,10.88
2024-05-09T00:43:47.028Z,10.79
2024-05-09T00:44:46.971Z,10.79
2024-05-09T00:45:46.965Z,10.79
2024-05-09T00:46:47.027Z,10.67
2024-05-09T00:47:47.300Z,10.60
2024-05-09T00:48:47.037Z,10.59
2024-05-09T00:49:47.069Z,10.53
2024-05-09T00:50:46.985Z,10.53
2024-05-09T00:51:46.943Z,10.53
2024-05-09T00:52:47.025Z,10.60
2024-05-09T00:53:46.898Z,10.63
2024-05-09T00:54:46.858Z,10.60
2024-05-09T00:55:46.973Z,10.61
2024-05-09T00:56:46.848Z,10.61
2024-05-09T00:57:46.860Z,10.61
2024-05-09T00:58:46.880Z,10.56
2024-05-09T00:59:46.815Z,10.61
2024-05-09T01:00:46.946Z,10.56
2024-05-09T01:01:46.934Z,10.60
2024-05-09T01:02:46.883Z,10.59
2024-05-09T01:03:49.553Z,10.55
2024-05-09T01:04:46.978Z,10.52
2024-05-09T01:05:46.827Z,10.52
2024-05-09T01:06:46.741Z,10.48
2024-05-09T01:07:46.783Z,10.36
2024-05-09T01:08:46.753Z,10.32
2024-05-09T01:09:46.718Z,10.27
2024-05-09T01:10:48.550Z,10.30
2024-05-09T01:11:46.766Z,10.32
2024-05-09T01:12:46.685Z,10.30
2024-05-09T01:13:46.708Z,10.34
2024-05-09T01:14:46.651Z,10.33
2024-05-09T01:15:46.656Z,10.34
2024-05-09T01:16:46.714Z,10.30
2024-05-09T01:17:46.784Z,10.27
2024-05-09T01:18:46.686Z,10.23
2024-05-09T01:19:46.663Z,10.18
2024-05-09T01:20:46.643Z,10.15
2024-05-09T01:21:46.624Z,10.12
2024-05-09T01:22:46.616Z,10.14
2024-05-09T01:23:46.612Z,10.07
2024-05-09T01:24:46.549Z,10.05
2024-05-09T01:25:47.132Z,10.07
2024-05-09T01:26:46.573Z,10.07
2024-05-09T01:27:46.547Z,10.09
2024-05-09T01:28:46.595Z,10.11
2024-05-09T01:29:46.496Z,10.14
2024-05-09T01:30:46.478Z,10.15
2024-05-09T01:31:46.569Z,10.15
2024-05-09T01:32:46.716Z,10.17
2024-05-09T01:33:46.819Z,10.15
2024-05-09T01:34:46.539Z,10.12
2024-05-09T01:35:46.540Z,10.08
2024-05-09T01:36:46.459Z,10.05
2024-05-09T01:37:46.472Z,10.04
2024-05-09T01:38:46.410Z,10.02
2024-05-09T01:39:46.408Z,10.05
2024-05-09T01:40:46.420Z,10.08
2024-05-09T01:41:46.375Z,10.05
2024-05-09T01:42:46.389Z,10.07
2024-05-09T01:43:46.391Z,10.07
2024-05-09T01:44:46.343Z,10.08
2024-05-09T01:45:46.398Z,10.15
2024-05-09T01:46:46.373Z,10.12
2024-05-09T01:47:46.563Z,10.12
2024-05-09T01:48:46.366Z,10.09
2024-05-09T01:49:46.352Z,10.15
2024-05-09T01:50:46.353Z,10.14
2024-05-09T01:51:46.298Z,10.11
2024-05-09T01:52:46.371Z,10.09
2024-05-09T01:53:46.331Z,10.14
2024-05-09T01:54:46.230Z,10.14
2024-05-09T01:55:46.312Z,10.09
2024-05-09T01:56:46.224Z,10.09
2024-05-09T01:57:46.265Z,10.11
2024-05-09T01:58:46.264Z,10.07
2024-05-09T01:59:46.243Z,10.07
2024-05-09T02:00:46.240Z,10.08
2024-05-09T02:01:56.495Z,10.07
2024-05-09T02:02:47.413Z,10.07
2024-05-09T02:03:46.358Z,10.04
2024-05-09T02:04:46.346Z,10.02
2024-05-09T02:05:47.143Z,10.05
2024-05-09T02:06:46.107Z,10.05
2024-05-09T02:07:46.172Z,10.07
2024-05-09T02:08:46.188Z,10.12
2024-05-09T02:09:46.120Z,10.07
2024-05-09T02:10:46.184Z,10.07
2024-05-09T02:11:46.130Z,10.08
2024-05-09T02:12:46.106Z,10.08
2024-05-09T02:13:46.101Z,10.09
2024-05-09T02:14:46.030Z,10.05
2024-05-09T02:15:46.039Z,9.97
2024-05-09T02:16:46.038Z,9.89
2024-05-09T02:17:46.183Z,9.94
2024-05-09T02:18:46.056Z,9.94
2024-05-09T02:19:46.017Z,9.90
2024-05-09T02:20:45.995Z,9.86
2024-05-09T02:21:45.970Z,9.83
2024-05-09T02:22:46.009Z,9.83
2024-05-09T02:23:45.976Z,9.78
2024-05-09T02:24:45.964Z,9.81
2024-05-09T02:25:45.950Z,9.76
2024-05-09T02:26:45.923Z,9.75
2024-05-09T02:27:45.907Z,9.74
2024-05-09T02:28:45.975Z,9.71
2024-05-09T02:29:45.893Z,9.72
2024-05-09T02:30:45.869Z,9.69
2024-05-09T02:31:45.919Z,9.68
2024-05-09T02:32:46.016Z,9.64
2024-05-09T02:33:46.051Z,9.57
2024-05-09T02:34:45.890Z,9.48
2024-05-09T02:35:45.858Z,9.43
2024-05-09T02:36:45.782Z,9.46
2024-05-09T02:37:45.800Z,9.46
2024-05-09T02:38:45.817Z,9.48
2024-05-09T02:39:45.766Z,9.51
2024-05-09T02:40:45.750Z,9.51
2024-05-09T02:41:45.793Z,9.48
2024-05-09T02:42:45.697Z,9.54
2024-05-09T02:43:45.770Z,9.54
2024-05-09T02:44:45.675Z,9.53
2024-05-09T02:45:45.683Z,9.51
2024-05-09T02:46:45.816Z,9.51
2024-05-09T02:47:45.857Z,9.50
2024-05-09T02:48:45.906Z,9.48
2024-05-09T02:49:45.654Z,9.51
2024-05-09T02:50:45.664Z,9.48
2024-05-09T02:51:45.596Z,9.47
2024-05-09T02:52:45.605Z,9.48
2024-05-09T02:53:45.607Z,9.48
2024-05-09T02:54:45.570Z,9.50
2024-05-09T02:55:45.585Z,9.48
2024-05-09T02:56:45.538Z,9.53
2024-05-09T02:57:45.523Z,9.50
2024-05-09T02:58:45.559Z,9.53
2024-05-09T02:59:45.494Z,9.48
2024-05-09T03:00:45.567Z,9.48
2024-05-09T03:01:45.739Z,9.46
2024-05-09T03:02:45.661Z,9.43
2024-05-09T03:03:45.647Z,9.47
2024-05-09T03:04:45.540Z,9.47
2024-05-09T03:05:45.789Z,9.43
2024-05-09T03:06:45.449Z,9.46
2024-05-09T03:07:45.499Z,9.43
2024-05-09T03:08:45.484Z,9.36
2024-05-09T03:09:45.405Z,9.33
2024-05-09T03:10:45.463Z,9.29
2024-05-09T03:11:45.484Z,9.20
2024-05-09T03:12:45.464Z,9.21
2024-05-09T03:13:45.408Z,9.18
2024-05-09T03:14:45.352Z,9.17
2024-05-09T03:15:45.404Z,9.04
2024-05-09T03:16:45.349Z,9.01
2024-05-09T03:17:45.535Z,8.96
2024-05-09T03:18:45.478Z,8.98
2024-05-09T03:19:45.362Z,8.99
2024-05-09T03:20:45.327Z,8.96
2024-05-09T03:21:45.309Z,8.94
2024-05-09T03:22:45.335Z,8.94
2024-05-09T03:23:45.372Z,8.92
2024-05-09T03:24:45.259Z,8.89
2024-05-09T03:25:45.283Z,8.80
2024-05-09T03:26:45.224Z,8.79
2024-05-09T03:27:45.241Z,8.76
2024-05-09T03:28:45.237Z,8.68
2024-05-09T03:29:45.253Z,8.68
2024-05-09T03:30:45.184Z,8.68
2024-05-09T03:31:45.335Z,8.71
2024-05-09T03:32:45.292Z,8.71
2024-05-09T03:33:45.389Z,8.66
2024-05-09T03:34:45.337Z,8.66
2024-05-09T03:35:45.139Z,8.71
2024-05-09T03:36:45.118Z,8.73
2024-05-09T03:37:45.154Z,8.76
2024-05-09T03:38:45.146Z,8.80
2024-05-09T03:39:45.150Z,8.80
2024-05-09T03:40:45.219Z,8.77
2024-05-09T03:41:45.101Z,8.76
2024-05-09T03:42:45.081Z,8.74
2024-05-09T03:43:45.082Z,8.79
2024-05-09T03:44:45.044Z,8.76
2024-05-09T03:45:45.014Z,8.81
2024-05-09T03:46:45.090Z,8.83
2024-05-09T03:47:45.241Z,8.84
2024-05-09T03:48:45.114Z,8.81
2024-05-09T03:49:45.024Z,8.77
2024-05-09T03:50:45.059Z,8.83
2024-05-09T03:51:44.972Z,8.81
2024-05-09T03:52:44.956Z,8.86
2024-05-09T03:53:45.020Z,8.91
2024-05-09T03:54:44.919Z,8.91
2024-05-09T03:55:45.015Z,8.86
2024-05-09T03:56:44.996Z,8.83
2024-05-09T03:57:44.923Z,8.76
2024-05-09T03:58:44.936Z,8.73
2024-05-09T03:59:44.950Z,8.70
2024-05-09T04:00:44.967Z,8.73
2024-05-09T04:01:45.206Z,8.76
2024-05-09T04:02:44.971Z,8.80
2024-05-09T04:03:45.139Z,8.84
2024-05-09T04:04:45.112Z,8.83
2024-05-09T04:05:45.096Z,8.84
2024-05-09T04:06:44.794Z,8.77
2024-05-09T04:07:44.841Z,8.80
2024-05-09T04:08:44.846Z,8.79
2024-05-09T04:09:44.801Z,8.83
2024-05-09T04:10:44.910Z,8.89
2024-05-09T04:11:44.859Z,8.94
2024-05-09T04:12:44.736Z,8.99
2024-05-09T04:13:44.772Z,8.96
2024-05-09T04:14:44.726Z,9.05
2024-05-09T04:15:44.731Z,9.10
2024-05-09T04:16:44.794Z,9.14
2024-05-09T04:17:44.832Z,9.17
2024-05-09T04:18:44.842Z,9.31
2024-05-09T04:19:44.712Z,9.35
2024-05-09T04:20:44.818Z,9.33
2024-05-09T04:21:44.639Z,9.32
2024-05-09T04:22:44.674Z,9.28
2024-05-09T04:23:44.683Z,9.23
2024-05-09T04:24:44.610Z,9.17
2024-05-09T04:25:45.441Z,9.17
2024-05-09T04:26:44.593Z,9.14
2024-05-09T04:27:44.581Z,9.02
2024-05-09T04:28:44.621Z,9.05
2024-05-09T04:29:44.570Z,9.04
2024-05-09T04:30:44.550Z,9.01
2024-05-09T04:31:44.609Z,8.95
2024-05-09T04:32:44.754Z,8.94
2024-05-09T04:33:44.681Z,8.95
2024-05-09T04:34:44.600Z,9.02
2024-05-09T04:35:45.005Z,9.13
2024-05-09T04:36:44.803Z,9.21
2024-05-09T04:37:44.519Z,9.23
2024-05-09T04:38:44.509Z,9.26
2024-05-09T04:39:44.458Z,9.28
2024-05-09T04:40:44.525Z,9.29
2024-05-09T04:41:44.470Z,9.35
2024-05-09T04:42:44.427Z,9.39
2024-05-09T04:43:44.416Z,9.50
2024-05-09T04:44:44.425Z,9.53
2024-05-09T04:45:44.416Z,9.65
2024-05-09T04:46:44.464Z,9.74
2024-05-09T04:47:44.477Z,9.79
2024-05-09T04:48:44.448Z,9.89
2024-05-09T04:49:44.386Z,9.97
2024-05-09T04:50:44.393Z,10.08
2024-05-09T04:51:44.349Z,10.12
2024-05-09T04:52:44.348Z,10.26
2024-05-09T04:53:44.576Z,10.81
2024-05-09T04:54:44.319Z,11.52
2024-05-09T04:55:44.508Z,11.83
2024-05-09T04:56:44.387Z,11.95
2024-05-09T04:57:44.281Z,12.31
2024-05-09T04:58:44.328Z,12.62
2024-05-09T04:59:44.266Z,13.04
2024-05-09T05:00:44.339Z,13.45
2024-05-09T05:01:44.273Z,13.91
2024-05-09T05:02:44.384Z,14.15
2024-05-09T05:03:44.417Z,13.73
2024-05-09T05:04:44.353Z,13.60
2024-05-09T05:05:45.435Z,13.54
2024-05-09T05:06:44.188Z,13.70
2024-05-09T05:07:44.223Z,14.32
2024-05-09T05:08:44.210Z,15.03
2024-05-09T05:09:44.189Z,15.74
2024-05-09T05:10:44.188Z,15.86
2024-05-09T05:11:44.405Z,16.17
2024-05-09T05:12:44.103Z,16.45
2024-05-09T05:13:44.136Z,16.94
2024-05-09T05:14:44.089Z,17.38
2024-05-09T05:15:44.088Z,17.34
2024-05-09T05:16:44.175Z,17.26
2024-05-09T05:17:44.200Z,17.12
2024-05-09T05:18:44.264Z,16.82
2024-05-09T05:19:44.135Z,16.04
2024-05-09T05:20:44.229Z,15.28
2024-05-09T05:21:44.026Z,15.16
2024-05-09T05:22:44.053Z,15.10
2024-05-09T05:23:44.072Z,15.49
2024-05-09T05:24:43.989Z,15.82
2024-05-09T05:25:44.057Z,16.25
2024-05-09T05:26:44.040Z,16.82
2024-05-09T05:27:43.945Z,17.08
2024-05-09T05:28:44.075Z,17.44
2024-05-09T05:29:43.941Z,17.25
2024-05-09T05:30:43.915Z,17.30
2024-05-09T05:31:43.960Z,17.59
2024-05-09T05:32:44.066Z,17.72
2024-05-09T05:33:43.961Z,17.90
2024-05-09T05:34:43.965Z,18.02
2024-05-09T05:35:43.914Z,18.15
2024-05-09T05:36:43.889Z,18.54
2024-05-09T05:37:44.013Z,18.44
2024-05-09T05:38:43.985Z,18.03
2024-05-09T05:39:43.816Z,18.08
2024-05-09T05:40:43.839Z,18.44
2024-05-09T05:41:43.976Z,18.32
2024-05-09T05:42:43.814Z,18.00
2024-05-09T05:43:43.874Z,18.05
2024-05-09T05:44:43.769Z,18.44
2024-05-09T05:45:43.772Z,18.88
2024-05-09T05:46:43.767Z,19.19
2024-05-09T05:47:43.997Z,19.29
2024-05-09T05:48:43.793Z,18.95
2024-05-09T05:49:43.752Z,19.18
2024-05-09T05:50:43.737Z,19.46
2024-05-09T05:51:43.699Z,19.80
2024-05-09T05:52:43.688Z,19.44
2024-05-09T05:53:43.759Z,18.69
2024-05-09T05:54:43.649Z,18.55
2024-05-09T05:55:43.653Z,18.54
2024-05-09T05:56:43.700Z,18.54
2024-05-09T05:57:43.628Z,18.21
2024-05-09T05:58:43.651Z,18.33
2024-05-09T05:59:43.677Z,18.58
2024-05-09T06:00:43.647Z,18.87
2024-05-09T06:01:43.585Z,18.92
2024-05-09T06:02:43.774Z,18.63
2024-05-09T06:03:43.746Z,18.91
2024-05-09T06:04:43.561Z,19.43
2024-05-09T06:05:44.162Z,19.43
2024-05-09T06:06:43.537Z,19.50
2024-05-09T06:07:43.526Z,19.71
2024-05-09T06:08:43.610Z,20.28
2024-05-09T06:09:45.975Z,20.57
2024-05-09T06:10:43.714Z,20.92
2024-05-09T06:11:43.599Z,21.25
2024-05-09T06:12:43.476Z,21.53
2024-05-09T06:13:43.449Z,22.02
2024-05-09T06:14:43.492Z,22.22
2024-05-09T06:15:44.019Z,22.42
2024-05-09T06:16:43.488Z,22.28
2024-05-09T06:17:43.536Z,22.18
2024-05-09T06:18:43.562Z,21.38
2024-05-09T06:19:43.467Z,19.76
2024-05-09T06:20:44.291Z,19.78
2024-05-09T06:21:43.375Z,18.90
2024-05-09T06:22:43.372Z,17.81
2024-05-09T06:23:43.400Z,17.31
2024-05-09T06:24:43.399Z,17.62
2024-05-09T06:25:43.347Z,17.52
2024-05-09T06:26:43.403Z,17.49
2024-05-09T06:27:43.387Z,17.36
2024-05-09T06:28:43.365Z,17.75
2024-05-09T06:29:43.414Z,18.26
2024-05-09T06:30:43.570Z,18.76
2024-05-09T06:31:43.268Z,19.22
2024-05-09T06:32:43.495Z,19.51
2024-05-09T06:33:43.434Z,20.02
2024-05-09T06:34:43.286Z,20.16
2024-05-09T06:35:43.370Z,20.41
2024-05-09T06:36:43.257Z,20.64
2024-05-09T06:37:43.212Z,20.58
2024-05-09T06:38:43.372Z,20.67
2024-05-09T06:39:43.179Z,20.88
2024-05-09T06:40:44.277Z,21.35
2024-05-09T06:41:43.246Z,21.96
2024-05-09T06:42:43.210Z,22.28
2024-05-09T06:43:43.152Z,22.55
2024-05-09T06:44:43.225Z,22.95
2024-05-09T06:45:43.155Z,22.37
2024-05-09T06:46:43.186Z,22.21
2024-05-09T06:47:43.296Z,21.37
2024-05-09T06:48:43.403Z,20.82
2024-05-09T06:49:43.125Z,19.83
2024-05-09T06:50:43.117Z,19.58
2024-05-09T06:51:43.090Z,19.71
2024-05-09T06:52:43.046Z,19.95
2024-05-09T06:53:43.083Z,20.59
2024-05-09T06:54:43.036Z,20.99
2024-05-09T06:55:43.041Z,21.32
2024-05-09T06:56:43.110Z,21.84
2024-05-09T06:57:43.295Z,22.30
2024-05-09T06:58:43.025Z,21.99
2024-05-09T06:59:43.020Z,21.22
2024-05-09T07:00:43.028Z,18.30
2024-05-09T07:01:42.961Z,17.22
2024-05-09T07:02:44.613Z,16.94
2024-05-09T07:03:43.025Z,16.94
2024-05-09T07:04:42.977Z,16.71
2024-05-09T07:05:43.278Z,16.28
2024-05-09T07:06:42.935Z,15.86
2024-05-09T07:07:42.928Z,15.27
2024-05-09T07:08:42.949Z,14.77
2024-05-09T07:09:42.886Z,14.54
2024-05-09T07:10:43.002Z,14.45
2024-05-09T07:11:43.118Z,14.39
2024-05-09T07:12:42.853Z,14.29
2024-05-09T07:13:42.854Z,14.29
2024-05-09T07:14:42.865Z,14.32
2024-05-09T07:15:42.852Z,14.40
2024-05-09T07:16:42.808Z,14.40
2024-05-09T07:17:42.982Z,14.52
2024-05-09T07:18:42.987Z,14.55
2024-05-09T07:19:42.842Z,14.61
2024-05-09T07:20:42.919Z,14.52
2024-05-09T07:21:42.761Z,14.45
2024-05-09T07:22:42.772Z,14.37
2024-05-09T07:23:46.127Z,14.27
2024-05-09T07:24:42.727Z,14.24
2024-05-09T07:25:42.759Z,14.28
2024-05-09T07:26:42.811Z,14.29
2024-05-09T07:27:42.799Z,14.33
2024-05-09T07:28:42.749Z,14.36
2024-05-09T07:29:42.824Z,14.46
2024-05-09T07:30:42.683Z,14.62
2024-05-09T07:31:42.687Z,14.80
2024-05-09T07:32:42.716Z,14.96
2024-05-09T07:33:42.750Z,15.03
2024-05-09T07:34:42.693Z,15.16
2024-05-09T07:35:42.696Z,15.25
2024-05-09T07:36:42.660Z,15.34
2024-05-09T07:37:42.587Z,15.31
2024-05-09T07:38:42.691Z,15.31
2024-05-09T07:39:42.605Z,15.32
2024-05-09T07:40:42.604Z,15.32
2024-05-09T07:41:42.647Z,15.39
2024-05-09T07:42:42.559Z,15.47
2024-05-09T07:43:42.560Z,15.44
2024-05-09T07:44:42.568Z,15.44
2024-05-09T07:45:50.822Z,15.38
2024-05-09T07:49:12.451Z,15.29
2024-05-09T07:51:32.322Z,15.35
2024-05-09T07:53:34.289Z,15.49
2024-05-09T07:53:47.152Z,15.57
2024-05-09T07:54:43.576Z,15.65
2024-05-09T07:55:42.623Z,15.64
2024-05-09T07:56:42.620Z,15.62
2024-05-09T07:57:42.533Z,15.71
2024-05-09T07:58:42.476Z,15.68
2024-05-09T07:59:42.385Z,15.71
2024-05-09T08:00:42.455Z,15.69
2024-05-09T08:01:42.501Z,15.71
2024-05-09T08:02:42.413Z,15.80
2024-05-09T08:03:42.514Z,15.93
2024-05-09T08:04:42.422Z,16.05
2024-05-09T08:05:42.420Z,16.05
2024-05-09T08:06:42.332Z,16.12
2024-05-09T08:07:42.285Z,16.20
2024-05-09T08:08:42.333Z,16.09
2024-05-09T08:09:42.301Z,16.02
2024-05-09T08:10:42.383Z,16.01
2024-05-09T08:11:42.314Z,16.11
2024-05-09T08:12:42.305Z,16.17
2024-05-09T08:13:42.376Z,16.20
2024-05-09T08:14:42.209Z,16.15
2024-05-09T08:15:42.371Z,16.25
2024-05-09T08:16:42.188Z,16.43
2024-05-09T08:17:42.301Z,16.56
2024-05-09T08:18:42.365Z,16.70
2024-05-09T08:19:42.282Z,16.70
2024-05-09T08:20:42.167Z,16.63
2024-05-09T08:21:42.351Z,16.53
2024-05-09T08:22:42.146Z,16.49
2024-05-09T08:23:42.184Z,16.49
2024-05-09T08:24:42.252Z,16.56
2024-05-09T08:25:42.107Z,16.61
2024-05-09T08:26:42.093Z,16.60
2024-05-09T08:27:42.160Z,16.61
2024-05-09T08:28:42.116Z,16.68
2024-05-09T08:29:42.140Z,16.70
2024-05-09T08:30:42.110Z,16.71
2024-05-09T08:31:42.053Z,16.71
2024-05-09T08:32:42.162Z,16.73
2024-05-09T08:33:42.255Z,16.79
2024-05-09T08:34:42.074Z,16.86
2024-05-09T08:35:42.004Z,16.97
2024-05-09T08:36:42.164Z,16.98
2024-05-09T08:37:42.188Z,17.01
2024-05-09T08:38:41.971Z,16.91
2024-05-09T08:39:41.977Z,17.01
2024-05-09T08:40:42.139Z,16.96
2024-05-09T08:41:41.944Z,17.01
2024-05-09T08:42:42.069Z,17.01
2024-05-09T08:43:42.178Z,16.98
2024-05-09T08:44:41.894Z,17.12
2024-05-09T08:45:42.155Z,17.25
2024-05-09T08:46:41.903Z,17.31
2024-05-09T08:47:41.935Z,17.23
2024-05-09T08:48:41.993Z,17.18
2024-05-09T08:49:41.908Z,17.21
2024-05-09T08:50:42.074Z,17.21
2024-05-09T08:51:41.878Z,17.22
2024-05-09T08:52:41.825Z,17.26
2024-05-09T08:53:41.827Z,17.15
2024-05-09T08:54:41.839Z,17.07
2024-05-09T08:55:43.611Z,16.96
2024-05-09T08:56:41.778Z,17.00
2024-05-09T08:57:41.815Z,17.11
2024-05-09T08:58:41.782Z,17.18
2024-05-09T08:59:41.765Z,17.14
2024-05-09T09:00:42.138Z,17.18
2024-05-09T09:01:41.850Z,17.08
2024-05-09T09:02:41.849Z,16.97
2024-05-09T09:03:41.935Z,16.83
2024-05-09T09:04:41.756Z,16.97
2024-05-09T09:05:41.852Z,17.08
2024-05-09T09:06:41.728Z,17.21
2024-05-09T09:07:41.743Z,17.28
2024-05-09T09:08:41.744Z,17.34
2024-05-09T09:09:41.658Z,17.46
2024-05-09T09:10:41.793Z,17.55
2024-05-09T09:11:41.639Z,17.77
2024-05-09T09:12:41.778Z,17.92
2024-05-09T09:13:41.653Z,17.89
2024-05-09T09:14:41.680Z,17.97
2024-05-09T09:15:41.661Z,17.96
2024-05-09T09:16:41.579Z,18.03
2024-05-09T09:17:41.662Z,18.10
2024-05-09T09:18:41.712Z,18.12
2024-05-09T09:19:41.737Z,18.07
2024-05-09T09:20:41.573Z,17.79
2024-05-09T09:21:41.556Z,17.86
2024-05-09T09:22:41.531Z,17.97
2024-05-09T09:23:41.556Z,18.14
2024-05-09T09:24:41.529Z,18.17
2024-05-09T09:25:41.512Z,18.18
2024-05-09T09:26:41.474Z,18.15
2024-05-09T09:27:41.531Z,18.11
2024-05-09T09:28:41.607Z,18.10
2024-05-09T09:29:41.486Z,18.14
2024-05-09T09:30:41.550Z,18.11
2024-05-09T09:31:41.448Z,18.03
2024-05-09T09:32:41.513Z,18.18
2024-05-09T09:33:41.578Z,18.26
2024-05-09T09:34:41.460Z,18.25
2024-05-09T09:35:41.398Z,18.29
2024-05-09T09:36:41.460Z,18.32
2024-05-09T09:37:41.427Z,18.36
2024-05-09T09:38:41.440Z,18.52
2024-05-09T09:39:41.416Z,18.33
2024-05-09T09:40:46.621Z,17.97
2024-05-09T09:41:42.388Z,17.93
2024-05-09T09:42:41.335Z,17.93
2024-05-09T09:43:41.331Z,18.00
2024-05-09T09:44:42.294Z,17.92
2024-05-09T09:45:41.350Z,17.71
2024-05-09T09:46:41.291Z,17.40
2024-05-09T09:47:41.397Z,17.30
2024-05-09T09:48:41.604Z,17.41
2024-05-09T09:49:41.275Z,17.63
2024-05-09T09:50:41.225Z,17.77
2024-05-09T09:51:41.360Z,17.86
2024-05-09T09:52:41.266Z,18.07
2024-05-09T09:53:41.204Z,18.25
2024-05-09T09:54:41.228Z,18.36
2024-05-09T09:55:41.178Z,18.45
2024-05-09T09:56:41.221Z,18.37
2024-05-09T09:57:41.193Z,18.44
2024-05-09T09:58:41.185Z,18.42
2024-05-09T09:59:41.144Z,18.52
2024-05-09T10:00:41.376Z,18.57
2024-05-09T10:01:41.184Z,18.58
2024-05-09T10:02:41.133Z,18.57
2024-05-09T10:03:42.334Z,18.55
2024-05-09T10:04:41.135Z,18.57
2024-05-09T10:05:44.045Z,18.45
2024-05-09T10:06:42.110Z,18.44
2024-05-09T10:07:41.074Z,18.52
2024-05-09T10:08:41.118Z,18.63
2024-05-09T10:09:41.177Z,18.85
2024-05-09T10:10:41.159Z,18.91
2024-05-09T10:11:45.410Z,19.02
2024-05-09T10:12:42.017Z,19.07
2024-05-09T10:13:41.013Z,19.18
2024-05-09T10:14:41.051Z,19.16
2024-05-09T10:15:40.999Z,19.04
2024-05-09T10:16:40.970Z,18.73
2024-05-09T10:17:41.002Z,18.67
2024-05-09T10:18:41.840Z,18.58
2024-05-09T10:19:41.786Z,18.69
2024-05-09T10:20:40.945Z,18.70
2024-05-09T10:21:40.945Z,18.81
2024-05-09T10:22:40.937Z,18.95
2024-05-09T10:23:40.980Z,18.90
2024-05-09T10:24:41.097Z,18.84
2024-05-09T10:25:40.863Z,18.76
2024-05-09T10:26:40.933Z,18.80
2024-05-09T10:27:40.965Z,18.73
2024-05-09T10:28:40.860Z,18.69
2024-05-09T10:29:40.824Z,18.80
2024-05-09T10:30:43.071Z,18.99
2024-05-09T10:31:41.041Z,19.21
2024-05-09T10:32:40.956Z,19.31
2024-05-09T10:33:41.037Z,19.47
2024-05-09T10:34:40.870Z,19.51
2024-05-09T10:35:40.839Z,19.59
2024-05-09T10:36:40.838Z,19.68
2024-05-09T10:37:40.782Z,19.83
2024-05-09T10:38:40.806Z,19.99
2024-05-09T10:39:40.767Z,20.17
2024-05-09T10:40:40.825Z,20.28
2024-05-09T10:41:40.757Z,20.18
2024-05-09T10:42:40.759Z,20.24
2024-05-09T10:43:40.740Z,20.21
2024-05-09T10:44:40.692Z,19.54
2024-05-09T10:45:40.733Z,19.48
2024-05-09T10:46:40.687Z,19.51
2024-05-09T10:47:40.843Z,19.44
2024-05-09T10:48:40.744Z,19.37
2024-05-09T10:49:40.665Z,19.31
2024-05-09T10:50:40.624Z,19.14
2024-05-09T10:51:40.657Z,18.85
2024-05-09T10:52:40.592Z,18.63
2024-05-09T10:53:40.599Z,18.67
2024-05-09T10:54:40.696Z,18.87
2024-05-09T10:55:40.575Z,19.06
2024-05-09T10:56:40.576Z,19.16
2024-05-09T10:57:40.640Z,19.21
2024-05-09T10:58:40.562Z,19.32
2024-05-09T10:59:40.516Z,19.28
2024-05-09T11:00:40.548Z,19.21
2024-05-09T11:01:40.656Z,19.08
2024-05-09T11:02:40.663Z,19.18
2024-05-09T11:03:40.673Z,19.31
2024-05-09T11:04:40.527Z,19.39
2024-05-09T11:05:40.626Z,19.43
2024-05-09T11:06:40.646Z,19.56
2024-05-09T11:07:40.522Z,19.62
2024-05-09T11:08:40.444Z,19.46
2024-05-09T11:09:40.486Z,19.18
2024-05-09T11:10:40.419Z,19.23
2024-05-09T11:11:40.501Z,19.32
2024-05-09T11:12:40.430Z,19.39
2024-05-09T11:13:40.409Z,19.47
2024-05-09T11:14:40.473Z,19.41
2024-05-09T11:15:40.437Z,19.21
2024-05-09T11:16:40.408Z,19.07
2024-05-09T11:17:40.437Z,19.14
2024-05-09T11:18:40.648Z,19.25
2024-05-09T11:19:40.451Z,19.22
2024-05-09T11:20:40.471Z,19.39
2024-05-09T11:21:40.414Z,19.58
2024-05-09T11:22:40.267Z,19.65
2024-05-09T11:23:40.283Z,19.63
2024-05-09T11:24:40.387Z,19.71
2024-05-09T11:25:40.385Z,19.86
2024-05-09T11:26:40.329Z,20.06
2024-05-09T11:27:40.295Z,20.16
2024-05-09T11:28:40.400Z,20.32
2024-05-09T11:29:40.210Z,20.47
2024-05-09T11:30:40.253Z,20.58
2024-05-09T11:31:40.330Z,20.57
2024-05-09T11:32:40.385Z,20.32
2024-05-09T11:33:40.423Z,20.18
2024-05-09T11:34:40.200Z,20.10
2024-05-09T11:35:40.130Z,20.17
2024-05-09T11:36:40.223Z,20.16
2024-05-09T11:37:40.272Z,20.29
2024-05-09T11:38:40.110Z,20.32
2024-05-09T11:39:40.195Z,20.20
2024-05-09T11:40:40.277Z,20.16
2024-05-09T11:41:41.096Z,20.10
2024-05-09T11:42:40.186Z,19.98
2024-05-09T11:43:40.082Z,19.86
2024-05-09T11:44:40.118Z,19.86
2024-05-09T11:45:40.124Z,19.92
2024-05-09T11:46:40.033Z,20.05
2024-05-09T11:47:40.191Z,20.18
2024-05-09T11:48:40.317Z,20.39
2024-05-09T11:49:40.174Z,20.58
2024-05-09T11:50:40.105Z,20.64
2024-05-09T11:51:40.118Z,20.73
2024-05-09T11:52:39.972Z,20.89
2024-05-09T11:53:40.099Z,20.88
2024-05-09T11:54:40.085Z,20.84
2024-05-09T11:55:39.953Z,20.79
2024-05-09T11:56:40.015Z,20.87
2024-05-09T11:57:39.988Z,21.03
2024-05-09T11:58:39.902Z,20.88
2024-05-09T11:59:39.952Z,20.66
2024-05-09T12:00:40.031Z,20.55
2024-05-09T12:01:40.129Z,20.36
2024-05-09T12:02:40.018Z,20.24
2024-05-09T12:03:39.998Z,20.32
2024-05-09T12:04:39.959Z,20.41
2024-05-09T12:05:40.012Z,20.57
2024-05-09T12:06:39.928Z,20.62
2024-05-09T12:07:39.827Z,20.72
2024-05-09T12:08:39.839Z,20.79
2024-05-09T12:09:39.953Z,20.87
2024-05-09T12:10:39.966Z,20.74
2024-05-09T12:11:39.952Z,20.59
2024-05-09T12:12:39.900Z,20.35
2024-05-09T12:13:39.784Z,20.42
2024-05-09T12:14:39.743Z,20.62
2024-05-09T12:15:39.854Z,20.74
2024-05-09T12:16:40.853Z,20.84
2024-05-09T12:17:39.808Z,20.91
2024-05-09T12:18:39.792Z,21.04
2024-05-09T12:19:39.888Z,21.03
2024-05-09T12:20:40.376Z,20.89
2024-05-09T12:21:39.701Z,20.82
2024-05-09T12:22:39.707Z,20.32
2024-05-09T12:23:39.901Z,20.31
2024-05-09T12:24:39.671Z,20.33
2024-05-09T12:25:40.103Z,20.20
2024-05-09T12:26:40.257Z,20.24
2024-05-09T12:27:39.653Z,20.38
2024-05-09T12:28:40.845Z,20.57
2024-05-09T12:29:39.715Z,20.70
2024-05-09T12:30:41.114Z,20.80
2024-05-09T12:31:39.613Z,20.73
2024-05-09T12:32:39.779Z,20.72
2024-05-09T12:33:39.660Z,20.72
2024-05-09T12:34:39.705Z,20.69
2024-05-09T12:35:39.573Z,20.41
2024-05-09T12:36:39.571Z,20.24
2024-05-09T12:37:39.565Z,20.18
2024-05-09T12:38:39.550Z,20.23
2024-05-09T12:39:39.581Z,20.35
2024-05-09T12:40:39.734Z,20.23
2024-05-09T12:41:39.463Z,20.14
2024-05-09T12:42:39.532Z,20.18
2024-05-09T12:43:39.536Z,20.35
2024-05-09T12:44:39.450Z,20.35
2024-05-09T12:45:39.847Z,20.23
2024-05-09T12:46:39.420Z,20.16
2024-05-09T12:47:39.562Z,20.24
2024-05-09T12:48:39.855Z,20.32
2024-05-09T12:49:39.753Z,20.39
2024-05-09T12:50:39.483Z,20.47
2024-05-09T12:51:39.391Z,20.55
2024-05-09T12:52:39.367Z,20.69
2024-05-09T12:53:39.374Z,20.79
2024-05-09T12:54:39.487Z,20.91
2024-05-09T12:55:45.140Z,20.97
2024-05-09T12:56:40.329Z,20.92
2024-05-09T12:57:39.353Z,20.95
2024-05-09T12:58:39.298Z,20.97
2024-05-09T12:59:39.278Z,20.92
2024-05-09T13:00:39.429Z,20.89
2024-05-09T13:01:39.381Z,21.03